createdAt,value
2018-01-06T00:00:33.237Z,47.42
2018-01-06T00:01:33.224Z,48.18
2018-01-06T00:02:33.217Z,47.23
2018-01-06T00:03:33.269Z,46.56
2018-01-06T00:04:33.222Z,47.32
2018-01-06T00:05:33.184Z,47.61
2018-01-06T00:06:33.167Z,47.13
2018-01-06T00:07:33.160Z,46.56
2018-01-06T00:08:33.145Z,47.13
2018-01-06T00:09:33.138Z,47.04
2018-01-06T00:10:33.133Z,46.66
2018-01-06T00:11:33.115Z,45.81
2018-01-06T00:12:33.106Z,46.56
2018-01-06T00:13:33.109Z,46.47
2018-01-06T00:14:33.081Z,46.47
2018-01-06T00:15:33.074Z,47.42
2018-01-06T00:16:33.069Z,46.75
2018-01-06T00:17:33.048Z,46.56
2018-01-06T00:18:33.044Z,46.94
2018-01-06T00:19:33.039Z,46.85
2018-01-06T00:20:33.016Z,47.32
2018-01-06T00:21:33.005Z,47.71
2018-01-06T00:22:32.997Z,47.52
2018-01-06T00:23:32.981Z,48.08
2018-01-06T00:24:32.968Z,46.94
2018-01-06T00:25:32.980Z,47.32
2018-01-06T00:26:32.968Z,47.23
2018-01-06T00:27:32.937Z,46.94
2018-01-06T00:28:32.930Z,48.08
2018-01-06T00:29:32.923Z,47.99
2018-01-06T00:30:32.905Z,47.39
2018-01-06T00:31:32.894Z,47.20
2018-01-06T00:32:32.880Z,47.11
2018-01-06T00:33:32.873Z,47.30
2018-01-06T00:34:32.861Z,46.83
2018-01-06T00:35:32.872Z,46.73
2018-01-06T00:36:32.849Z,46.92
2018-01-06T00:37:32.833Z,46.64
2018-01-06T00:38:32.815Z,46.45
2018-01-06T00:39:32.807Z,47.20
2018-01-06T00:40:32.801Z,47.02
2018-01-06T00:41:32.804Z,47.02
2018-01-06T00:42:32.769Z,47.11
2018-01-06T00:43:32.759Z,46.54
2018-01-06T00:44:32.746Z,46.64
2018-01-06T00:45:32.734Z,47.39
2018-01-06T00:46:32.725Z,46.16
2018-01-06T00:47:32.715Z,46.83
2018-01-06T00:48:32.699Z,47.39
2018-01-06T00:49:32.695Z,46.92
2018-01-06T00:50:32.680Z,47.11
2018-01-06T00:51:32.667Z,46.92
2018-01-06T00:52:32.659Z,46.92
2018-01-06T00:53:32.644Z,46.54
2018-01-06T00:54:32.634Z,46.73
2018-01-06T00:55:32.623Z,47.02
2018-01-06T00:56:32.613Z,46.83
2018-01-06T00:57:32.605Z,47.30
2018-01-06T00:58:32.590Z,47.02
2018-01-06T00:59:32.578Z,46.26
2018-01-06T01:00:32.588Z,46.92
2018-01-06T01:01:32.557Z,47.11
2018-01-06T01:02:32.549Z,46.64
2018-01-06T01:03:32.533Z,47.20
2018-01-06T01:04:32.519Z,47.49
2018-01-06T01:05:32.516Z,47.20
2018-01-06T01:06:32.502Z,47.11
2018-01-06T01:07:32.487Z,47.02
2018-01-06T01:08:32.477Z,47.77
2018-01-06T01:09:32.468Z,47.58
2018-01-06T01:10:32.452Z,48.15
2018-01-06T01:11:32.449Z,48.15
2018-01-06T01:12:32.438Z,49.01
2018-01-06T01:13:32.421Z,49.76
2018-01-06T01:14:32.415Z,49.57
2018-01-06T01:15:32.398Z,49.57
2018-01-06T01:16:32.385Z,50.34
2018-01-06T01:17:32.372Z,49.95
2018-01-06T01:18:32.362Z,50.62
2018-01-06T01:19:32.357Z,50.34
2018-01-06T01:21:08.317Z,50.71
2018-01-06T01:21:34.749Z,50.43
2018-01-06T01:22:32.319Z,50.43
2018-01-06T01:23:32.308Z,50.52
2018-01-06T01:24:32.296Z,50.90
2018-01-06T01:25:32.280Z,50.05
2018-01-06T01:26:32.278Z,50.43
2018-01-06T01:27:32.266Z,49.86
2018-01-06T01:28:32.253Z,50.62
2018-01-06T01:29:32.240Z,50.15
2018-01-06T01:30:32.231Z,50.52
2018-01-06T01:31:32.213Z,50.62
2018-01-06T01:32:32.209Z,50.43
2018-01-06T01:33:32.190Z,50.62
2018-01-06T01:34:32.189Z,50.43
2018-01-06T01:35:32.183Z,50.52
2018-01-06T01:36:32.162Z,50.05
2018-01-06T01:37:32.148Z,48.82
2018-01-06T01:38:32.138Z,49.29
2018-01-06T01:39:32.129Z,49.67
2018-01-06T01:40:32.129Z,49.19
2018-01-06T01:41:32.102Z,49.29
2018-01-06T01:42:32.107Z,49.29
2018-01-06T01:43:32.078Z,48.72
2018-01-06T01:44:32.066Z,48.06
2018-01-06T01:45:32.057Z,48.63
2018-01-06T01:46:32.044Z,47.77
2018-01-06T01:47:32.034Z,46.92
2018-01-06T01:48:32.021Z,47.02
2018-01-06T01:49:32.011Z,47.39
2018-01-06T01:50:32.000Z,46.35
2018-01-06T01:51:31.983Z,47.11
2018-01-06T01:52:31.988Z,47.11
2018-01-06T01:53:31.969Z,47.02
2018-01-06T01:54:31.974Z,47.20
2018-01-06T01:55:31.940Z,47.11
2018-01-06T01:56:31.931Z,47.02
2018-01-06T01:57:31.916Z,47.37
2018-01-06T01:58:31.909Z,47.58
2018-01-06T01:59:31.896Z,47.75
2018-01-06T02:00:31.891Z,47.56
2018-01-06T02:01:31.873Z,47.66
2018-01-06T02:02:31.864Z,47.47
2018-01-06T02:03:31.850Z,47.18
2018-01-06T02:04:31.844Z,46.61
2018-01-06T02:05:31.828Z,46.42
2018-01-06T02:06:31.818Z,46.99
2018-01-06T02:07:31.809Z,47.18
2018-01-06T02:08:31.796Z,46.99
2018-01-06T02:09:31.795Z,46.90
2018-01-06T02:10:31.791Z,47.09
2018-01-06T02:11:31.761Z,47.28
2018-01-06T02:12:31.755Z,46.99
2018-01-06T02:13:31.746Z,46.61
2018-01-06T02:14:31.739Z,46.23
2018-01-06T02:15:31.720Z,46.52
2018-01-06T02:16:31.716Z,46.80
2018-01-06T02:17:31.693Z,46.99
2018-01-06T02:18:31.685Z,46.99
2018-01-06T02:19:31.668Z,46.80
2018-01-06T02:20:31.668Z,46.71
2018-01-06T02:21:31.656Z,46.52
2018-01-06T02:22:31.637Z,46.52
2018-01-06T02:23:31.624Z,46.71
2018-01-06T02:24:31.610Z,46.23
2018-01-06T02:25:31.601Z,46.71
2018-01-06T02:26:31.593Z,46.80
2018-01-06T02:27:31.579Z,46.52
2018-01-06T02:28:31.565Z,46.90
2018-01-06T02:29:31.553Z,47.09
2018-01-06T02:30:31.543Z,47.37
2018-01-06T02:31:31.527Z,47.18
2018-01-06T02:32:31.536Z,47.47
2018-01-06T02:33:31.509Z,47.09
2018-01-06T02:34:31.500Z,47.28
2018-01-06T02:35:31.484Z,47.28
2018-01-06T02:36:31.476Z,47.28
2018-01-06T02:37:31.461Z,46.99
2018-01-06T02:38:31.484Z,46.99
2018-01-06T02:39:31.440Z,47.28
2018-01-06T02:40:31.429Z,47.66
2018-01-06T02:41:31.414Z,47.28
2018-01-06T02:42:31.404Z,46.71
2018-01-06T02:43:31.416Z,47.09
2018-01-06T02:44:31.379Z,47.47
2018-01-06T02:45:31.372Z,46.99
2018-01-06T02:46:31.359Z,46.90
2018-01-06T02:47:31.352Z,46.90
2018-01-06T02:48:31.343Z,46.99
2018-01-06T02:49:31.333Z,46.90
2018-01-06T02:50:31.338Z,47.18
2018-01-06T02:51:31.301Z,46.90
2018-01-06T02:52:31.290Z,47.09
2018-01-06T02:53:31.282Z,47.37
2018-01-06T02:54:31.266Z,46.99
2018-01-06T02:55:31.257Z,46.99
2018-01-06T02:56:31.246Z,47.09
2018-01-06T02:57:31.236Z,46.80
2018-01-06T02:58:31.219Z,46.90
2018-01-06T02:59:31.210Z,46.71
2018-01-06T03:00:31.198Z,46.52
2018-01-06T03:01:31.187Z,46.33
2018-01-06T03:02:31.177Z,46.71
2018-01-06T03:03:31.160Z,46.23
2018-01-06T03:04:31.151Z,46.71
2018-01-06T03:05:31.140Z,46.52
2018-01-06T03:06:31.131Z,46.52
2018-01-06T03:07:31.117Z,46.23
2018-01-06T03:08:31.110Z,46.42
2018-01-06T03:09:31.093Z,46.61
2018-01-06T03:10:31.082Z,46.71
2018-01-06T03:11:31.070Z,46.42
2018-01-06T03:12:31.063Z,46.52
2018-01-06T03:13:31.050Z,46.42
2018-01-06T03:14:31.033Z,46.71
2018-01-06T03:15:31.026Z,46.42
2018-01-06T03:16:31.016Z,46.71
2018-01-06T03:17:31.004Z,46.61
2018-01-06T03:18:30.995Z,46.33
2018-01-06T03:19:30.981Z,46.61
2018-01-06T03:20:30.966Z,46.33
2018-01-06T03:21:30.970Z,46.33
2018-01-06T03:22:30.947Z,46.52
2018-01-06T03:23:30.934Z,46.23
2018-01-06T03:24:30.922Z,46.71
2018-01-06T03:25:30.914Z,46.99
2018-01-06T03:26:30.899Z,46.99
2018-01-06T03:27:30.905Z,46.61
2018-01-06T03:28:30.876Z,47.37
2018-01-06T03:29:30.867Z,46.90
2018-01-06T03:30:30.855Z,46.99
2018-01-06T03:31:30.843Z,47.09
2018-01-06T03:32:30.828Z,46.90
2018-01-06T03:33:30.826Z,47.18
2018-01-06T03:34:30.807Z,47.28
2018-01-06T03:35:30.793Z,47.28
2018-01-06T03:36:30.783Z,46.90
2018-01-06T03:37:30.769Z,47.37
2018-01-06T03:38:30.763Z,46.80
2018-01-06T03:39:30.754Z,46.80
2018-01-06T03:40:30.747Z,47.18
2018-01-06T03:41:30.723Z,46.71
2018-01-06T03:42:30.714Z,47.28
2018-01-06T03:43:30.701Z,46.90
2018-01-06T03:44:30.691Z,46.99
2018-01-06T03:45:30.679Z,47.09
2018-01-06T03:46:30.669Z,46.90
2018-01-06T03:47:30.654Z,46.90
2018-01-06T03:48:30.645Z,47.09
2018-01-06T03:49:30.633Z,47.09
2018-01-06T03:50:30.622Z,46.90
2018-01-06T03:51:30.611Z,47.37
2018-01-06T03:52:30.601Z,46.99
2018-01-06T03:53:30.583Z,47.37
2018-01-06T03:54:30.571Z,47.28
2018-01-06T03:55:30.561Z,46.99
2018-01-06T03:56:30.551Z,46.99
2018-01-06T03:57:30.543Z,47.09
2018-01-06T03:58:30.528Z,47.09
2018-01-06T03:59:30.516Z,47.09
2018-01-06T04:00:30.507Z,47.09
2018-01-06T04:01:30.491Z,47.28
2018-01-06T04:02:30.484Z,46.99
2018-01-06T04:03:30.471Z,46.90
2018-01-06T04:04:30.465Z,46.61
2018-01-06T04:05:30.452Z,46.90
2018-01-06T04:06:30.438Z,46.99
2018-01-06T04:07:30.426Z,47.09
2018-01-06T04:08:30.413Z,47.37
2018-01-06T04:09:30.402Z,46.99
2018-01-06T04:10:30.390Z,46.90
2018-01-06T04:11:30.379Z,46.90
2018-01-06T04:12:30.365Z,47.37
2018-01-06T04:13:30.354Z,47.37
2018-01-06T04:14:30.349Z,47.28
2018-01-06T04:15:30.336Z,46.71
2018-01-06T04:16:30.319Z,47.09
2018-01-06T04:17:30.308Z,47.09
2018-01-06T04:18:30.304Z,46.90
2018-01-06T04:19:30.281Z,46.90
2018-01-06T04:20:30.286Z,46.90
2018-01-06T04:21:30.284Z,47.56
2018-01-06T04:22:30.249Z,47.28
2018-01-06T04:23:30.258Z,47.56
2018-01-06T04:24:30.250Z,47.18
2018-01-06T04:25:30.228Z,47.28
2018-01-06T04:26:30.206Z,47.28
2018-01-06T04:27:30.188Z,47.28
2018-01-06T04:28:30.184Z,46.90
2018-01-06T04:29:30.168Z,47.28
2018-01-06T04:30:30.163Z,47.28
2018-01-06T04:31:30.164Z,46.90
2018-01-06T04:32:30.132Z,46.90
2018-01-06T04:33:30.123Z,46.90
2018-01-06T04:34:30.113Z,46.90
2018-01-06T04:35:30.097Z,47.66
2018-01-06T04:36:30.098Z,46.90
2018-01-06T04:37:30.082Z,47.37
2018-01-06T04:38:30.065Z,47.66
2018-01-06T04:39:30.059Z,47.28
2018-01-06T04:40:30.041Z,46.99
2018-01-06T04:41:30.031Z,46.99
2018-01-06T04:42:30.018Z,47.37
2018-01-06T04:43:30.005Z,47.09
2018-01-06T04:44:29.994Z,46.90
2018-01-06T04:45:29.982Z,46.90
2018-01-06T04:46:29.971Z,46.90
2018-01-06T04:47:29.957Z,47.09
2018-01-06T04:48:29.947Z,47.09
2018-01-06T04:49:29.939Z,46.99
2018-01-06T04:50:29.928Z,46.99
2018-01-06T04:51:29.910Z,47.18
2018-01-06T04:52:29.905Z,47.28
2018-01-06T04:53:29.891Z,47.09
2018-01-06T04:54:29.875Z,47.09
2018-01-06T04:55:29.865Z,47.37
2018-01-06T04:56:29.852Z,47.09
2018-01-06T04:57:29.848Z,47.18
2018-01-06T04:58:29.831Z,47.66
2018-01-06T04:59:29.819Z,47.56
2018-01-06T05:00:29.811Z,47.94
2018-01-06T05:01:29.794Z,47.75
2018-01-06T05:02:29.785Z,47.75
2018-01-06T05:03:29.774Z,47.66
2018-01-06T05:04:29.765Z,47.66
2018-01-06T05:05:29.749Z,48.03
2018-01-06T05:06:29.738Z,47.94
2018-01-06T05:07:29.727Z,47.56
2018-01-06T05:08:29.714Z,46.90
2018-01-06T05:09:29.702Z,47.47
2018-01-06T05:10:29.694Z,47.09
2018-01-06T05:11:29.682Z,46.90
2018-01-06T05:12:29.668Z,47.09
2018-01-06T05:13:29.658Z,46.99
2018-01-06T05:14:29.651Z,47.09
2018-01-06T05:15:29.634Z,47.56
2018-01-06T05:16:29.622Z,46.90
2018-01-06T05:17:29.614Z,46.99
2018-01-06T05:18:29.601Z,47.37
2018-01-06T05:19:29.589Z,47.75
2018-01-06T05:20:29.574Z,47.66
2018-01-06T05:21:29.567Z,47.66
2018-01-06T05:22:29.555Z,47.66
2018-01-06T05:23:29.540Z,47.85
2018-01-06T05:24:29.532Z,48.32
2018-01-06T05:25:29.528Z,47.94
2018-01-06T05:26:29.508Z,47.85
2018-01-06T05:27:29.496Z,47.94
2018-01-06T05:28:29.485Z,48.03
2018-01-06T05:29:29.470Z,48.25
2018-01-06T05:30:29.464Z,48.41
2018-01-06T05:31:29.456Z,49.27
2018-01-06T05:32:29.441Z,48.60
2018-01-06T05:33:29.440Z,48.79
2018-01-06T05:34:29.425Z,48.60
2018-01-06T05:35:29.407Z,48.60
2018-01-06T05:36:29.391Z,48.03
2018-01-06T05:37:29.382Z,48.22
2018-01-06T05:38:29.376Z,47.94
2018-01-06T05:39:29.362Z,47.94
2018-01-06T05:40:29.360Z,47.66
2018-01-06T05:41:29.339Z,47.77
2018-01-06T05:42:29.331Z,48.13
2018-01-06T05:43:29.312Z,48.06
2018-01-06T05:44:29.306Z,49.19
2018-01-06T05:45:29.294Z,49.67
2018-01-06T05:46:29.281Z,50.05
2018-01-06T05:47:29.272Z,51.57
2018-01-06T05:48:29.286Z,50.71
2018-01-06T05:49:29.246Z,50.90
2018-01-06T05:50:29.239Z,51.09
2018-01-06T05:51:29.228Z,52.33
2018-01-06T05:52:29.213Z,51.95
2018-01-06T05:53:29.203Z,52.23
2018-01-06T05:54:29.195Z,52.23
2018-01-06T05:55:29.181Z,51.76
2018-01-06T05:56:29.168Z,51.76
2018-01-06T05:57:29.161Z,51.57
2018-01-06T05:58:29.148Z,51.09
2018-01-06T05:59:29.136Z,50.99
2018-01-06T06:00:29.129Z,50.90
2018-01-06T06:01:29.121Z,50.90
2018-01-06T06:02:29.104Z,50.52
2018-01-06T06:03:29.090Z,50.52
2018-01-06T06:04:29.078Z,50.52
2018-01-06T06:05:29.076Z,50.15
2018-01-06T06:06:29.061Z,50.34
2018-01-06T06:07:29.047Z,50.15
2018-01-06T06:08:29.036Z,50.24
2018-01-06T06:09:29.022Z,50.05
2018-01-06T06:10:29.017Z,50.34
2018-01-06T06:11:29.005Z,50.71
2018-01-06T06:12:28.992Z,50.62
2018-01-06T06:13:28.978Z,50.62
2018-01-06T06:14:28.975Z,50.52
2018-01-06T06:15:28.958Z,51.18
2018-01-06T06:16:28.948Z,51.95
2018-01-06T06:17:28.946Z,51.57
2018-01-06T06:18:28.926Z,51.47
2018-01-06T06:19:28.918Z,51.66
2018-01-06T06:20:28.904Z,50.71
2018-01-06T06:21:28.892Z,50.62
2018-01-06T06:22:28.883Z,50.90
2018-01-06T06:23:28.869Z,50.52
2018-01-06T06:24:28.854Z,50.34
2018-01-06T06:25:28.848Z,50.62
2018-01-06T06:26:28.839Z,49.95
2018-01-06T06:27:28.826Z,49.38
2018-01-06T06:28:28.818Z,49.29
2018-01-06T06:29:28.801Z,49.19
2018-01-06T06:30:28.794Z,48.72
2018-01-06T06:31:28.780Z,48.82
2018-01-06T06:32:28.774Z,48.54
2018-01-06T06:33:28.766Z,48.82
2018-01-06T06:34:28.746Z,48.63
2018-01-06T06:35:28.740Z,47.96
2018-01-06T06:36:28.721Z,48.25
2018-01-06T06:37:28.717Z,47.96
2018-01-06T06:38:28.701Z,48.06
2018-01-06T06:39:28.702Z,47.96
2018-01-06T06:40:28.684Z,48.15
2018-01-06T06:41:28.677Z,48.15
2018-01-06T06:42:28.660Z,48.34
2018-01-06T06:43:28.652Z,47.96
2018-01-06T06:44:28.638Z,47.87
2018-01-06T06:45:28.625Z,48.34
2018-01-06T06:46:28.618Z,47.87
2018-01-06T06:47:28.609Z,48.15
2018-01-06T06:48:28.595Z,47.96
2018-01-06T06:49:28.585Z,48.06
2018-01-06T06:50:28.573Z,48.63
2018-01-06T06:51:28.558Z,48.72
2018-01-06T06:52:28.548Z,48.63
2018-01-06T06:53:28.541Z,48.72
2018-01-06T06:54:28.531Z,49.29
2018-01-06T06:55:28.520Z,49.19
2018-01-06T06:56:28.506Z,49.38
2018-01-06T06:57:28.498Z,49.57
2018-01-06T06:58:28.487Z,49.38
2018-01-06T06:59:28.477Z,49.10
2018-01-06T07:00:28.462Z,50.24
2018-01-06T07:01:28.453Z,51.18
2018-01-06T07:02:28.444Z,51.09
2018-01-06T07:03:28.432Z,51.09
2018-01-06T07:04:28.435Z,51.28
2018-01-06T07:05:28.416Z,50.52
2018-01-06T07:06:28.400Z,50.43
2018-01-06T07:07:28.389Z,50.62
2018-01-06T07:08:28.378Z,50.52
2018-01-06T07:09:28.364Z,49.95
2018-01-06T07:10:28.356Z,49.48
2018-01-06T07:11:28.382Z,49.57
2018-01-06T07:12:28.336Z,50.71
2018-01-06T07:13:28.324Z,50.52
2018-01-06T07:14:28.311Z,50.99
2018-01-06T07:15:28.305Z,50.81
2018-01-06T07:16:28.291Z,52.70
2018-01-06T07:17:28.282Z,52.23
2018-01-06T07:18:28.282Z,52.70
2018-01-06T07:19:28.292Z,52.51
2018-01-06T07:20:28.247Z,52.42
2018-01-06T07:21:28.233Z,55.26
2018-01-06T07:22:28.263Z,54.79
2018-01-06T07:23:28.213Z,56.02
2018-01-06T07:24:28.202Z,56.12
2018-01-06T07:25:28.219Z,54.98
2018-01-06T07:26:28.179Z,55.17
2018-01-06T07:27:28.169Z,55.17
2018-01-06T07:28:28.166Z,56.05
2018-01-06T07:29:28.150Z,55.64
2018-01-06T07:30:28.137Z,55.36
2018-01-06T07:31:28.131Z,55.38
2018-01-06T07:32:28.117Z,53.75
2018-01-06T07:33:28.101Z,53.65
2018-01-06T07:34:28.097Z,53.46
2018-01-06T07:35:28.083Z,54.60
2018-01-06T07:36:28.081Z,55.67
2018-01-06T07:37:28.057Z,57.47
2018-01-06T07:38:28.052Z,54.88
2018-01-06T07:39:28.041Z,53.37
2018-01-06T07:40:28.052Z,54.79
2018-01-06T07:41:28.020Z,55.96
2018-01-06T07:42:28.006Z,54.44
2018-01-06T07:43:27.997Z,54.82
2018-01-06T07:44:27.989Z,55.57
2018-01-06T07:45:27.980Z,53.84
2018-01-06T07:46:27.964Z,55.48
2018-01-06T07:47:27.954Z,56.43
2018-01-06T07:48:27.939Z,57.19
2018-01-06T07:49:27.930Z,57.76
2018-01-06T07:50:27.935Z,58.70
2018-01-06T07:51:27.915Z,59.46
2018-01-06T07:52:27.901Z,58.99
2018-01-06T07:53:27.912Z,58.99
2018-01-06T07:54:27.878Z,58.61
2018-01-06T07:55:27.869Z,59.46
2018-01-06T07:56:27.854Z,59.08
2018-01-06T07:57:27.849Z,57.95
2018-01-06T07:58:27.836Z,58.51
2018-01-06T07:59:27.822Z,59.37
2018-01-06T08:00:27.818Z,59.18
2018-01-06T08:01:27.812Z,58.99
2018-01-06T08:02:27.793Z,58.33
2018-01-06T08:03:27.786Z,56.43
2018-01-06T08:04:27.771Z,56.15
2018-01-06T08:05:27.774Z,54.91
2018-01-06T08:06:27.752Z,54.53
2018-01-06T08:07:27.774Z,55.29
2018-01-06T08:08:27.730Z,56.05
2018-01-06T08:09:27.719Z,55.48
2018-01-06T08:10:27.706Z,55.57
2018-01-06T08:11:27.706Z,55.10
2018-01-06T08:12:27.683Z,56.24
2018-01-06T08:13:27.677Z,54.06
2018-01-06T08:14:27.662Z,53.77
2018-01-06T08:15:27.651Z,53.87
2018-01-06T08:16:27.640Z,54.15
2018-01-06T08:17:27.629Z,54.15
2018-01-06T08:18:27.617Z,53.77
2018-01-06T08:19:27.608Z,53.49
2018-01-06T08:20:27.602Z,53.58
2018-01-06T08:21:27.585Z,53.49
2018-01-06T08:22:27.578Z,53.02
2018-01-06T08:23:27.566Z,53.08
2018-01-06T08:24:27.559Z,52.64
2018-01-06T08:25:27.554Z,53.20
2018-01-06T08:26:27.533Z,52.54
2018-01-06T08:27:27.525Z,53.30
2018-01-06T08:28:27.511Z,52.64
2018-01-06T08:29:27.502Z,52.26
2018-01-06T08:30:27.491Z,53.08
2018-01-06T08:31:27.481Z,52.23
2018-01-06T08:32:27.469Z,52.42
2018-01-06T08:33:27.458Z,52.80
2018-01-06T08:34:27.448Z,54.32
2018-01-06T08:35:27.435Z,53.37
2018-01-06T08:36:27.427Z,52.42
2018-01-06T08:37:27.415Z,53.75
2018-01-06T08:38:27.403Z,52.23
2018-01-06T08:39:27.393Z,52.51
2018-01-06T08:40:27.382Z,52.04
2018-01-06T08:41:27.374Z,51.47
2018-01-06T08:42:27.361Z,54.13
2018-01-06T08:43:27.354Z,52.51
2018-01-06T08:44:27.335Z,56.68
2018-01-06T08:45:27.331Z,56.40
2018-01-06T08:46:27.379Z,54.13
2018-01-06T08:47:27.315Z,53.84
2018-01-06T08:48:27.296Z,54.22
2018-01-06T08:49:27.286Z,53.37
2018-01-06T08:50:27.276Z,52.80
2018-01-06T08:51:27.267Z,52.70
2018-01-06T08:52:27.250Z,52.14
2018-01-06T08:53:27.249Z,52.42
2018-01-06T08:54:27.249Z,52.14
2018-01-06T08:55:27.236Z,52.80
2018-01-06T08:56:27.216Z,52.61
2018-01-06T08:57:27.200Z,53.75
2018-01-06T08:58:27.185Z,54.69
2018-01-06T08:59:27.179Z,54.88
2018-01-06T09:00:27.164Z,53.27
2018-01-06T09:01:27.158Z,53.27
2018-01-06T09:02:27.151Z,54.03
2018-01-06T09:03:27.133Z,54.69
2018-01-06T09:04:27.123Z,54.13
2018-01-06T09:05:27.114Z,53.75
2018-01-06T09:06:27.101Z,53.46
2018-01-06T09:07:27.088Z,54.32
2018-01-06T09:08:27.081Z,54.79
2018-01-06T09:09:27.069Z,54.69
2018-01-06T09:10:27.061Z,54.98
2018-01-06T09:11:27.045Z,58.58
2018-01-06T09:12:27.047Z,57.64
2018-01-06T09:13:27.025Z,57.85
2018-01-06T09:14:27.018Z,59.44
2018-01-06T09:15:27.008Z,57.57
2018-01-06T09:16:26.998Z,60.03
2018-01-06T09:17:26.988Z,61.08
2018-01-06T09:18:26.981Z,60.03
2018-01-06T09:19:26.963Z,57.47
2018-01-06T09:20:26.955Z,62.78
2018-01-06T09:21:26.950Z,60.70
2018-01-06T09:22:26.933Z,60.22
2018-01-06T09:23:26.924Z,57.28
2018-01-06T09:24:26.911Z,62.31
2018-01-06T09:25:26.911Z,63.07
2018-01-06T09:26:26.886Z,62.21
2018-01-06T09:27:26.882Z,63.26
2018-01-06T09:28:26.874Z,62.21
2018-01-06T09:29:26.871Z,57.85
2018-01-06T09:30:26.853Z,60.79
2018-01-06T09:31:26.836Z,60.89
2018-01-06T09:32:26.836Z,59.08
2018-01-06T09:33:26.823Z,65.06
2018-01-06T09:34:26.807Z,62.02
2018-01-06T09:35:26.804Z,63.35
2018-01-06T09:36:26.794Z,66.39
2018-01-06T09:37:26.776Z,61.46
2018-01-06T09:38:26.771Z,61.65
2018-01-06T09:39:26.762Z,63.73
2018-01-06T09:40:26.749Z,67.24
2018-01-06T09:41:26.737Z,67.65
2018-01-06T09:42:26.734Z,69.84
2018-01-06T09:43:26.742Z,69.08
2018-01-06T09:44:26.709Z,67.46
2018-01-06T09:45:26.709Z,68.98
2018-01-06T09:46:26.698Z,65.09
2018-01-06T09:47:26.704Z,65.47
2018-01-06T09:48:26.689Z,68.89
2018-01-06T09:49:26.662Z,66.61
2018-01-06T09:50:26.652Z,67.65
2018-01-06T09:51:26.640Z,68.60
2018-01-06T09:52:26.641Z,68.98
2018-01-06T09:53:26.624Z,68.98
2018-01-06T09:54:26.631Z,67.27
2018-01-06T09:55:26.605Z,72.59
2018-01-06T09:56:26.594Z,70.31
2018-01-06T09:57:26.608Z,71.36
2018-01-06T09:58:26.572Z,72.49
2018-01-06T09:59:26.588Z,71.26
2018-01-06T10:00:26.552Z,67.27
2018-01-06T10:01:26.551Z,67.46
2018-01-06T10:02:26.578Z,70.88
2018-01-06T10:03:26.544Z,66.14
2018-01-06T10:04:26.556Z,67.75
2018-01-06T10:05:26.515Z,72.21
2018-01-06T10:06:26.496Z,70.98
2018-01-06T10:07:26.488Z,71.55
2018-01-06T10:08:26.502Z,69.36
2018-01-06T10:09:26.476Z,75.05
2018-01-06T10:10:26.470Z,72.59
2018-01-06T10:11:26.454Z,71.64
2018-01-06T10:12:26.438Z,74.58
2018-01-06T10:13:26.434Z,63.76
2018-01-06T10:14:26.433Z,71.55
2018-01-06T10:15:26.418Z,71.83
2018-01-06T10:16:26.422Z,73.35
2018-01-06T10:17:26.393Z,71.55
2018-01-06T10:18:26.384Z,72.49
2018-01-06T10:19:26.376Z,71.73
2018-01-06T10:20:26.374Z,69.74
2018-01-06T10:21:26.365Z,69.27
2018-01-06T10:22:26.350Z,69.65
2018-01-06T10:23:26.337Z,68.51
2018-01-06T10:24:26.331Z,67.46
2018-01-06T10:25:26.321Z,69.55
2018-01-06T10:26:26.327Z,62.05
2018-01-06T10:27:26.302Z,62.34
2018-01-06T10:28:26.295Z,60.92
2018-01-06T10:29:26.280Z,62.24
2018-01-06T10:30:26.276Z,68.32
2018-01-06T10:31:26.265Z,63.20
2018-01-06T10:32:26.255Z,60.73
2018-01-06T10:33:26.254Z,59.49
2018-01-06T10:34:26.237Z,68.51
2018-01-06T10:35:26.236Z,67.85
2018-01-06T10:36:26.220Z,69.27
2018-01-06T10:37:26.207Z,71.39
2018-01-06T10:38:26.204Z,73.76
2018-01-06T10:39:26.187Z,71.48
2018-01-06T10:40:26.177Z,70.73
2018-01-06T10:41:26.174Z,74.81
2018-01-06T10:42:26.165Z,74.43
2018-01-06T10:43:26.149Z,72.72
2018-01-06T10:44:26.143Z,71.58
2018-01-06T10:45:26.146Z,70.25
2018-01-06T10:46:26.130Z,70.63
2018-01-06T10:47:26.115Z,72.53
2018-01-06T10:48:26.122Z,72.34
2018-01-06T10:49:26.095Z,70.06
2018-01-06T10:50:26.090Z,76.23
2018-01-06T10:51:26.084Z,72.81
2018-01-06T10:52:26.071Z,73.29
2018-01-06T10:53:26.077Z,73.48
2018-01-06T10:54:26.054Z,76.52
2018-01-06T10:55:26.048Z,62.18
2018-01-06T10:56:26.035Z,73.48
2018-01-06T10:57:26.023Z,73.86
2018-01-06T10:58:26.036Z,69.11
2018-01-06T10:59:26.007Z,68.73
2018-01-06T11:00:26.005Z,62.18
2018-01-06T11:01:25.984Z,65.88
2018-01-06T11:02:25.989Z,71.30
2018-01-06T11:03:25.975Z,73.48
2018-01-06T11:04:25.975Z,75.28
2018-01-06T11:05:25.967Z,70.92
2018-01-06T11:06:25.941Z,76.14
2018-01-06T11:07:25.933Z,76.80
2018-01-06T11:08:25.920Z,73.19
2018-01-06T11:09:25.945Z,71.58
2018-01-06T11:10:25.910Z,75.57
2018-01-06T11:11:25.921Z,71.30
2018-01-06T11:12:25.885Z,68.16
2018-01-06T11:13:25.877Z,72.63
2018-01-06T11:14:25.865Z,72.53
2018-01-06T11:15:25.854Z,77.94
2018-01-06T11:16:25.866Z,76.42
2018-01-06T11:17:25.841Z,73.38
2018-01-06T11:18:25.827Z,64.75
2018-01-06T11:19:25.823Z,65.41
2018-01-06T11:20:25.810Z,68.44
2018-01-06T11:21:25.857Z,60.76
2018-01-06T11:22:25.808Z,58.95
2018-01-06T11:23:25.780Z,62.85
2018-01-06T11:24:25.771Z,63.51
2018-01-06T11:25:25.763Z,60.95
2018-01-06T11:26:25.753Z,59.05
2018-01-06T11:27:25.748Z,60.00
2018-01-06T11:28:25.736Z,69.02
2018-01-06T11:29:25.728Z,68.83
2018-01-06T11:30:25.713Z,67.50
2018-01-06T11:31:25.705Z,58.67
2018-01-06T11:32:25.699Z,66.17
2018-01-06T11:33:25.688Z,60.76
2018-01-06T11:34:25.679Z,58.76
2018-01-06T11:35:25.667Z,54.78
2018-01-06T11:36:25.659Z,56.20
2018-01-06T11:37:25.667Z,55.35
2018-01-06T11:38:25.644Z,64.56
2018-01-06T11:39:25.633Z,64.56
2018-01-06T11:40:25.620Z,62.56
2018-01-06T11:41:25.616Z,65.79
2018-01-06T11:42:25.607Z,67.40
2018-01-06T11:43:25.608Z,67.88
2018-01-06T11:44:25.588Z,65.98
2018-01-06T11:45:25.576Z,67.59
2018-01-06T11:46:25.597Z,66.27
2018-01-06T11:47:25.573Z,64.94
2018-01-06T11:48:25.596Z,67.40
2018-01-06T11:49:25.544Z,66.93
2018-01-06T11:50:25.534Z,65.12
2018-01-06T11:51:25.521Z,64.65
2018-01-06T11:52:25.511Z,63.89
2018-01-06T11:53:25.504Z,63.89
2018-01-06T11:54:25.496Z,65.31
2018-01-06T11:55:25.483Z,65.41
2018-01-06T11:56:25.482Z,66.93
2018-01-06T11:57:25.467Z,68.26
2018-01-06T11:58:25.463Z,66.96
2018-01-06T11:59:25.455Z,62.40
2018-01-06T12:00:25.445Z,64.59
2018-01-06T12:01:25.436Z,65.82
2018-01-06T12:02:25.428Z,66.96
2018-01-06T12:03:25.421Z,70.10
2018-01-06T12:04:25.404Z,65.25
2018-01-06T12:05:25.418Z,67.34
2018-01-06T12:06:25.408Z,63.17
2018-01-06T12:07:25.378Z,67.72
2018-01-06T12:08:25.367Z,70.00
2018-01-06T12:09:25.358Z,65.92
2018-01-06T12:10:25.352Z,66.96
2018-01-06T12:11:25.340Z,70.95
2018-01-06T12:12:25.340Z,72.56
2018-01-06T12:13:25.338Z,75.79
2018-01-06T12:14:25.315Z,71.43
2018-01-06T12:15:25.305Z,67.91
2018-01-06T12:16:25.296Z,73.71
2018-01-06T12:17:25.289Z,73.23
2018-01-06T12:18:25.280Z,73.90
2018-01-06T12:19:25.269Z,74.08
2018-01-06T12:20:25.265Z,66.30
2018-01-06T12:21:25.253Z,70.95
2018-01-06T12:22:25.245Z,69.81
2018-01-06T12:23:25.231Z,70.76
2018-01-06T12:24:25.226Z,67.82
2018-01-06T12:25:25.217Z,71.90
2018-01-06T12:26:25.216Z,76.46
2018-01-06T12:27:25.202Z,75.60
2018-01-06T12:28:25.191Z,72.75
2018-01-06T12:29:25.182Z,70.95
2018-01-06T12:30:25.173Z,71.33
2018-01-06T12:31:25.162Z,72.95
2018-01-06T12:32:25.157Z,73.42
2018-01-06T12:33:25.145Z,74.75
2018-01-06T12:34:25.134Z,72.47
2018-01-06T12:35:25.127Z,78.55
2018-01-06T12:36:25.121Z,67.53
2018-01-06T12:37:25.114Z,75.32
2018-01-06T12:38:25.102Z,70.38
2018-01-06T12:39:25.090Z,74.75
2018-01-06T12:40:25.091Z,71.62
2018-01-06T12:41:25.077Z,73.80
2018-01-06T12:42:25.064Z,70.76
2018-01-06T12:43:25.055Z,72.75
2018-01-06T12:44:25.047Z,72.47
2018-01-06T12:45:25.041Z,74.27
2018-01-06T12:46:25.028Z,72.19
2018-01-06T12:47:25.015Z,73.42
2018-01-06T12:48:25.013Z,75.42
2018-01-06T12:49:25.004Z,72.09
2018-01-06T12:50:24.992Z,65.06
2018-01-06T12:51:24.984Z,72.28
2018-01-06T12:52:24.975Z,69.24